sensor_id;sensor_type;location;lat;lon;timestamp;P1;durP1;ratioP1;P2;durP2;ratioP2
31087;SDS011;17745;55.914;37.554;2023-02-22T00:00:35;21.60;;;14.38;;
31087;SDS011;17745;55.914;37.554;2023-02-22T00:03:47;36.80;;;17.12;;
31087;SDS011;17745;55.914;37.554;2023-02-22T00:06:18;16.27;;;12.27;;
31087;SDS011;17745;55.914;37.554;2023-02-22T00:08:50;29.50;;;16.40;;
31087;SDS011;17745;55.914;37.554;2023-02-22T00:11:18;40.28;;;15.65;;
31087;SDS011;17745;55.914;37.554;2023-02-22T00:13:46;22.33;;;15.35;;
31087;SDS011;17745;55.914;37.554;2023-02-22T00:16:17;27.30;;;14.32;;
31087;SDS011;17745;55.914;37.554;2023-02-22T00:18:54;29.80;;;15.27;;
31087;SDS011;17745;55.914;37.554;2023-02-22T00:21:27;25.48;;;14.50;;
31087;SDS011;17745;55.914;37.554;2023-02-22T00:23:55;44.83;;;20.45;;
31087;SDS011;17745;55.914;37.554;2023-02-22T00:26:24;35.88;;;19.60;;
31087;SDS011;17745;55.914;37.554;2023-02-22T00:28:52;30.05;;;16.70;;
31087;SDS011;17745;55.914;37.554;2023-02-22T00:31:23;31.98;;;18.55;;
31087;SDS011;17745;55.914;37.554;2023-02-22T00:33:54;30.70;;;17.33;;
31087;SDS011;17745;55.914;37.554;2023-02-22T00:36:22;42.80;;;20.73;;
31087;SDS011;17745;55.914;37.554;2023-02-22T00:38:53;34.45;;;18.00;;
31087;SDS011;17745;55.914;37.554;2023-02-22T00:41:23;30.90;;;15.77;;
31087;SDS011;17745;55.914;37.554;2023-02-22T00:43:52;28.80;;;15.38;;
31087;SDS011;17745;55.914;37.554;2023-02-22T00:46:20;38.30;;;20.83;;
31087;SDS011;17745;55.914;37.554;2023-02-22T00:48:52;34.17;;;17.98;;
31087;SDS011;17745;55.914;37.554;2023-02-22T00:51:24;37.75;;;21.10;;
31087;SDS011;17745;55.914;37.554;2023-02-22T00:54:01;23.33;;;13.62;;
31087;SDS011;17745;55.914;37.554;2023-02-22T00:56:31;19.70;;;13.30;;
31087;SDS011;17745;55.914;37.554;2023-02-22T00:59:03;30.52;;;16.10;;
31087;SDS011;17745;55.914;37.554;2023-02-22T01:01:31;36.78;;;17.35;;
31087;SDS011;17745;55.914;37.554;2023-02-22T01:04:02;23.85;;;13.48;;
31087;SDS011;17745;55.914;37.554;2023-02-22T01:06:32;32.97;;;19.20;;
31087;SDS011;17745;55.914;37.554;2023-02-22T01:09:02;25.98;;;15.52;;
31087;SDS011;17745;55.914;37.554;2023-02-22T01:11:40;34.60;;;19.75;;
31087;SDS011;17745;55.914;37.554;2023-02-22T01:14:14;27.33;;;14.10;;
31087;SDS011;17745;55.914;37.554;2023-02-22T01:16:52;42.47;;;22.50;;
31087;SDS011;17745;55.914;37.554;2023-02-22T01:19:23;35.30;;;16.75;;
31087;SDS011;17745;55.914;37.554;2023-02-22T01:21:58;34.75;;;18.12;;
31087;SDS011;17745;55.914;37.554;2023-02-22T01:24:34;19.75;;;14.10;;
31087;SDS011;17745;55.914;37.554;2023-02-22T01:27:16;37.75;;;21.58;;
31087;SDS011;17745;55.914;37.554;2023-02-22T01:29:55;29.52;;;16.25;;
31087;SDS011;17745;55.914;37.554;2023-02-22T01:32:25;19.67;;;13.65;;
31087;SDS011;17745;55.914;37.554;2023-02-22T01:34:52;25.73;;;15.00;;
31087;SDS011;17745;55.914;37.554;2023-02-22T01:37:21;32.55;;;17.50;;
31087;SDS011;17745;55.914;37.554;2023-02-22T01:39:55;34.08;;;16.85;;
31087;SDS011;17745;55.914;37.554;2023-02-22T01:42:23;22.48;;;13.77;;
31087;SDS011;17745;55.914;37.554;2023-02-22T01:47:44;23.33;;;13.27;;
31087;SDS011;17745;55.914;37.554;2023-02-22T01:50:15;34.17;;;18.83;;
31087;SDS011;17745;55.914;37.554;2023-02-22T01:52:46;22.42;;;14.20;;
31087;SDS011;17745;55.914;37.554;2023-02-22T01:55:19;34.35;;;17.50;;
31087;SDS011;17745;55.914;37.554;2023-02-22T01:57:48;36.08;;;17.37;;
31087;SDS011;17745;55.914;37.554;2023-02-22T02:00:16;29.85;;;16.67;;
31087;SDS011;17745;55.914;37.554;2023-02-22T02:02:52;25.52;;;13.77;;
31087;SDS011;17745;55.914;37.554;2023-02-22T02:05:25;32.10;;;16.67;;
31087;SDS011;17745;55.914;37.554;2023-02-22T02:08:00;25.20;;;13.93;;
31087;SDS011;17745;55.914;37.554;2023-02-22T02:10:43;35.00;;;16.35;;
31087;SDS011;17745;55.914;37.554;2023-02-22T02:13:14;20.23;;;12.77;;
31087;SDS011;17745;55.914;37.554;2023-02-22T02:16:04;21.62;;;13.77;;
31087;SDS011;17745;55.914;37.554;2023-02-22T02:18:37;12.57;;;10.90;;
31087;SDS011;17745;55.914;37.554;2023-02-22T02:27:25;15.50;;;12.60;;
31087;SDS011;17745;55.914;37.554;2023-02-22T02:33:17;41.50;;;22.98;;
31087;SDS011;17745;55.914;37.554;2023-02-22T02:35:55;34.55;;;15.98;;
31087;SDS011;17745;55.914;37.554;2023-02-22T02:38:30;29.10;;;15.70;;
31087;SDS011;17745;55.914;37.554;2023-02-22T02:41:04;18.87;;;16.17;;
31087;SDS011;17745;55.914;37.554;2023-02-22T02:43:40;31.83;;;16.42;;
31087;SDS011;17745;55.914;37.554;2023-02-22T02:46:14;30.12;;;17.17;;
31087;SDS011;17745;55.914;37.554;2023-02-22T02:48:50;34.50;;;18.87;;
31087;SDS011;17745;55.914;37.554;2023-02-22T02:51:23;33.65;;;16.45;;
31087;SDS011;17745;55.914;37.554;2023-02-22T02:53:57;33.40;;;18.58;;
31087;SDS011;17745;55.914;37.554;2023-02-22T02:56:28;32.30;;;16.85;;
31087;SDS011;17745;55.914;37.554;2023-02-22T02:58:55;38.65;;;18.30;;
31087;SDS011;17745;55.914;37.554;2023-02-22T03:01:30;40.08;;;21.37;;
31087;SDS011;17745;55.914;37.554;2023-02-22T03:04:24;37.30;;;18.35;;
31087;SDS011;17745;55.914;37.554;2023-02-22T03:07:08;32.43;;;17.90;;
31087;SDS011;17745;55.914;37.554;2023-02-22T03:09:51;28.30;;;16.27;;
31087;SDS011;17745;55.914;37.554;2023-02-22T03:12:32;30.62;;;18.00;;
31087;SDS011;17745;55.914;37.554;2023-02-22T03:15:12;27.48;;;16.05;;
31087;SDS011;17745;55.914;37.554;2023-02-22T03:17:58;29.55;;;17.80;;
31087;SDS011;17745;55.914;37.554;2023-02-22T03:20:45;35.63;;;20.58;;
31087;SDS011;17745;55.914;37.554;2023-02-22T03:23:34;36.72;;;19.58;;
31087;SDS011;17745;55.914;37.554;2023-02-22T03:26:18;21.58;;;12.07;;
31087;SDS011;17745;55.914;37.554;2023-02-22T03:29:20;23.60;;;14.35;;
31087;SDS011;17745;55.914;37.554;2023-02-22T03:31:55;30.83;;;18.77;;
31087;SDS011;17745;55.914;37.554;2023-02-22T03:34:33;30.37;;;17.30;;
31087;SDS011;17745;55.914;37.554;2023-02-22T03:37:32;29.67;;;15.30;;
31087;SDS011;17745;55.914;37.554;2023-02-22T03:40:14;41.40;;;21.27;;
31087;SDS011;17745;55.914;37.554;2023-02-22T03:43:19;35.55;;;17.30;;
31087;SDS011;17745;55.914;37.554;2023-02-22T03:45:56;39.63;;;21.70;;
31087;SDS011;17745;55.914;37.554;2023-02-22T03:48:30;19.77;;;13.07;;
31087;SDS011;17745;55.914;37.554;2023-02-22T03:51:07;30.25;;;17.50;;
31087;SDS011;17745;55.914;37.554;2023-02-22T03:53:51;35.92;;;18.62;;
31087;SDS011;17745;55.914;37.554;2023-02-22T03:56:22;48.77;;;22.40;;
31087;SDS011;17745;55.914;37.554;2023-02-22T03:59:01;50.20;;;19.65;;
31087;SDS011;17745;55.914;37.554;2023-02-22T04:01:35;26.08;;;18.00;;
31087;SDS011;17745;55.914;37.554;2023-02-22T04:04:05;15.68;;;12.27;;
31087;SDS011;17745;55.914;37.554;2023-02-22T04:06:48;23.55;;;14.50;;
31087;SDS011;17745;55.914;37.554;2023-02-22T04:22:45;35.15;;;20.10;;
31087;SDS011;17745;55.914;37.554;2023-02-22T04:25:23;24.65;;;12.40;;
31087;SDS011;17745;55.914;37.554;2023-02-22T04:28:09;29.12;;;16.12;;
31087;SDS011;17745;55.914;37.554;2023-02-22T04:30:40;41.17;;;20.33;;
31087;SDS011;17745;55.914;37.554;2023-02-22T04:33:11;41.40;;;19.40;;
31087;SDS011;17745;55.914;37.554;2023-02-22T04:35:45;22.55;;;16.05;;
31087;SDS011;17745;55.914;37.554;2023-02-22T04:38:17;24.75;;;14.73;;
31087;SDS011;17745;55.914;37.554;2023-02-22T04:40:55;46.75;;;22.02;;
31087;SDS011;17745;55.914;37.554;2023-02-22T04:43:24;15.07;;;13.35;;
31087;SDS011;17745;55.914;37.554;2023-02-22T04:46:04;25.70;;;14.43;;
31087;SDS011;17745;55.914;37.554;2023-02-22T04:48:37;31.52;;;17.95;;
31087;SDS011;17745;55.914;37.554;2023-02-22T04:51:32;35.38;;;18.52;;
31087;SDS011;17745;55.914;37.554;2023-02-22T04:54:08;31.62;;;16.62;;
31087;SDS011;17745;55.914;37.554;2023-02-22T04:56:50;29.60;;;14.50;;
31087;SDS011;17745;55.914;37.554;2023-02-22T04:59:32;19.75;;;13.62;;
31087;SDS011;17745;55.914;37.554;2023-02-22T05:02:16;20.52;;;12.55;;
31087;SDS011;17745;55.914;37.554;2023-02-22T05:04:56;16.05;;;12.20;;
31087;SDS011;17745;55.914;37.554;2023-02-22T05:07:29;19.15;;;11.88;;
31087;SDS011;17745;55.914;37.554;2023-02-22T05:12:44;36.40;;;18.35;;
31087;SDS011;17745;55.914;37.554;2023-02-22T05:15:15;37.30;;;18.20;;
31087;SDS011;17745;55.914;37.554;2023-02-22T05:17:52;36.10;;;19.25;;
31087;SDS011;17745;55.914;37.554;2023-02-22T05:20:22;31.50;;;16.65;;
31087;SDS011;17745;55.914;37.554;2023-02-22T05:22:57;25.12;;;13.77;;
31087;SDS011;17745;55.914;37.554;2023-02-22T05:25:57;26.40;;;14.77;;
31087;SDS011;17745;55.914;37.554;2023-02-22T05:28:34;30.90;;;16.75;;
31087;SDS011;17745;55.914;37.554;2023-02-22T05:31:04;39.85;;;18.98;;
31087;SDS011;17745;55.914;37.554;2023-02-22T05:33:38;33.13;;;15.77;;
31087;SDS011;17745;55.914;37.554;2023-02-22T05:36:07;26.52;;;17.20;;
31087;SDS011;17745;55.914;37.554;2023-02-22T05:38:41;33.95;;;16.75;;
31087;SDS011;17745;55.914;37.554;2023-02-22T05:41:12;40.58;;;22.87;;
31087;SDS011;17745;55.914;37.554;2023-02-22T05:43:46;37.58;;;21.77;;
31087;SDS011;17745;55.914;37.554;2023-02-22T05:46:24;29.15;;;15.20;;
31087;SDS011;17745;55.914;37.554;2023-02-22T05:49:11;29.75;;;17.27;;
31087;SDS011;17745;55.914;37.554;2023-02-22T05:51:39;35.55;;;17.17;;
31087;SDS011;17745;55.914;37.554;2023-02-22T05:54:11;32.08;;;17.90;;
31087;SDS011;17745;55.914;37.554;2023-02-22T05:56:49;17.87;;;14.50;;
31087;SDS011;17745;55.914;37.554;2023-02-22T05:59:35;30.83;;;14.77;;
31087;SDS011;17745;55.914;37.554;2023-02-22T06:02:06;33.05;;;18.35;;
31087;SDS011;17745;55.914;37.554;2023-02-22T06:04:45;16.52;;;12.00;;
31087;SDS011;17745;55.914;37.554;2023-02-22T06:07:21;28.70;;;15.40;;
31087;SDS011;17745;55.914;37.554;2023-02-22T06:09:56;42.60;;;23.05;;
31087;SDS011;17745;55.914;37.554;2023-02-22T06:12:37;18.27;;;11.10;;
31087;SDS011;17745;55.914;37.554;2023-02-22T06:15:35;24.40;;;12.93;;
31087;SDS011;17745;55.914;37.554;2023-02-22T06:18:09;27.48;;;15.60;;
31087;SDS011;17745;55.914;37.554;2023-02-22T06:20:41;41.90;;;19.65;;
31087;SDS011;17745;55.914;37.554;2023-02-22T06:23:16;26.90;;;15.77;;
31087;SDS011;17745;55.914;37.554;2023-02-22T06:26:00;21.10;;;12.73;;
31087;SDS011;17745;55.914;37.554;2023-02-22T06:29:00;27.25;;;13.38;;
31087;SDS011;17745;55.914;37.554;2023-02-22T06:31:33;29.10;;;13.18;;
31087;SDS011;17745;55.914;37.554;2023-02-22T06:34:09;31.23;;;15.18;;
31087;SDS011;17745;55.914;37.554;2023-02-22T06:36:42;19.37;;;14.13;;
31087;SDS011;17745;55.914;37.554;2023-02-22T06:39:15;38.03;;;18.23;;
31087;SDS011;17745;55.914;37.554;2023-02-22T06:41:48;25.85;;;13.43;;
31087;SDS011;17745;55.914;37.554;2023-02-22T06:44:25;32.05;;;16.90;;
31087;SDS011;17745;55.914;37.554;2023-02-22T06:46:55;27.67;;;17.70;;
31087;SDS011;17745;55.914;37.554;2023-02-22T06:49:29;23.67;;;13.68;;
31087;SDS011;17745;55.914;37.554;2023-02-22T06:51:59;28.40;;;15.95;;
31087;SDS011;17745;55.914;37.554;2023-02-22T06:54:45;20.37;;;12.65;;
31087;SDS011;17745;55.914;37.554;2023-02-22T06:57:15;16.33;;;11.48;;
31087;SDS011;17745;55.914;37.554;2023-02-22T06:59:56;23.60;;;13.27;;
31087;SDS011;17745;55.914;37.554;2023-02-22T07:02:29;23.62;;;13.93;;
31087;SDS011;17745;55.914;37.554;2023-02-22T07:04:59;33.22;;;17.17;;
31087;SDS011;17745;55.914;37.554;2023-02-22T07:07:45;31.17;;;16.17;;
31087;SDS011;17745;55.914;37.554;2023-02-22T07:10:18;25.80;;;12.80;;
31087;SDS011;17745;55.914;37.554;2023-02-22T07:12:52;38.17;;;19.23;;
31087;SDS011;17745;55.914;37.554;2023-02-22T07:15:25;18.77;;;13.07;;
31087;SDS011;17745;55.914;37.554;2023-02-22T07:18:04;32.08;;;16.95;;
31087;SDS011;17745;55.914;37.554;2023-02-22T07:20:37;22.73;;;13.75;;
31087;SDS011;17745;55.914;37.554;2023-02-22T07:23:08;31.83;;;17.52;;
31087;SDS011;17745;55.914;37.554;2023-02-22T07:25:47;30.60;;;15.57;;
31087;SDS011;17745;55.914;37.554;2023-02-22T07:28:20;32.03;;;11.65;;
31087;SDS011;17745;55.914;37.554;2023-02-22T07:34:14;22.98;;;14.02;;
31087;SDS011;17745;55.914;37.554;2023-02-22T07:36:55;32.90;;;16.33;;
31087;SDS011;17745;55.914;37.554;2023-02-22T07:39:24;29.17;;;16.00;;
31087;SDS011;17745;55.914;37.554;2023-02-22T07:42:28;30.75;;;17.60;;
31087;SDS011;17745;55.914;37.554;2023-02-22T07:45:01;35.42;;;19.23;;
31087;SDS011;17745;55.914;37.554;2023-02-22T07:47:39;25.58;;;13.98;;
31087;SDS011;17745;55.914;37.554;2023-02-22T07:50:59;22.42;;;14.85;;
31087;SDS011;17745;55.914;37.554;2023-02-22T07:53:52;34.58;;;18.70;;
31087;SDS011;17745;55.914;37.554;2023-02-22T08:11:37;27.90;;;14.90;;
31087;SDS011;17745;55.914;37.554;2023-02-22T08:14:24;26.10;;;13.40;;
31087;SDS011;17745;55.914;37.554;2023-02-22T08:20:20;26.87;;;15.77;;
31087;SDS011;17745;55.914;37.554;2023-02-22T08:27:13;16.87;;;11.38;;
31087;SDS011;17745;55.914;37.554;2023-02-22T08:29:48;20.52;;;10.18;;
31087;SDS011;17745;55.914;37.554;2023-02-22T08:32:26;10.75;;;8.18;;
31087;SDS011;17745;55.914;37.554;2023-02-22T08:34:58;19.85;;;12.90;;
31087;SDS011;17745;55.914;37.554;2023-02-22T08:37:31;28.23;;;14.80;;
31087;SDS011;17745;55.914;37.554;2023-02-22T08:40:02;20.23;;;12.88;;
31087;SDS011;17745;55.914;37.554;2023-02-22T08:42:51;21.77;;;13.18;;
31087;SDS011;17745;55.914;37.554;2023-02-22T08:45:24;31.73;;;15.35;;
31087;SDS011;17745;55.914;37.554;2023-02-22T08:47:56;30.73;;;14.63;;
31087;SDS011;17745;55.914;37.554;2023-02-22T08:50:34;24.87;;;13.70;;
31087;SDS011;17745;55.914;37.554;2023-02-22T08:53:06;23.45;;;12.85;;
31087;SDS011;17745;55.914;37.554;2023-02-22T08:55:43;30.15;;;15.27;;
31087;SDS011;17745;55.914;37.554;2023-02-22T09:12:55;24.55;;;11.70;;
31087;SDS011;17745;55.914;37.554;2023-02-22T09:26:40;34.08;;;15.77;;
31087;SDS011;17745;55.914;37.554;2023-02-22T09:29:19;21.77;;;11.93;;
31087;SDS011;17745;55.914;37.554;2023-02-22T09:31:53;18.50;;;11.45;;
31087;SDS011;17745;55.914;37.554;2023-02-22T09:34:23;18.23;;;8.50;;
31087;SDS011;17745;55.914;37.554;2023-02-22T09:37:00;29.60;;;15.77;;
31087;SDS011;17745;55.914;37.554;2023-02-22T09:39:29;22.00;;;13.70;;
31087;SDS011;17745;55.914;37.554;2023-02-22T09:42:04;20.10;;;12.32;;
31087;SDS011;17745;55.914;37.554;2023-02-22T09:44:56;20.75;;;12.32;;
31087;SDS011;17745;55.914;37.554;2023-02-22T09:47:57;34.28;;;15.95;;
31087;SDS011;17745;55.914;37.554;2023-02-22T09:50:58;16.30;;;11.75;;
31087;SDS011;17745;55.914;37.554;2023-02-22T09:53:43;19.05;;;11.25;;
31087;SDS011;17745;55.914;37.554;2023-02-22T09:56:33;24.35;;;12.13;;
31087;SDS011;17745;55.914;37.554;2023-02-22T09:59:14;21.55;;;11.75;;
31087;SDS011;17745;55.914;37.554;2023-02-22T10:02:16;28.25;;;14.70;;
31087;SDS011;17745;55.914;37.554;2023-02-22T10:05:06;15.68;;;9.40;;
31087;SDS011;17745;55.914;37.554;2023-02-22T10:07:45;17.67;;;9.95;;
31087;SDS011;17745;55.914;37.554;2023-02-22T10:10:58;21.77;;;10.98;;
31087;SDS011;17745;55.914;37.554;2023-02-22T10:13:56;26.83;;;14.55;;
31087;SDS011;17745;55.914;37.554;2023-02-22T10:16:54;23.90;;;15.18;;
31087;SDS011;17745;55.914;37.554;2023-02-22T10:23:12;20.52;;;12.63;;
31087;SDS011;17745;55.914;37.554;2023-02-22T10:25:47;17.92;;;11.73;;
31087;SDS011;17745;55.914;37.554;2023-02-22T10:28:24;32.03;;;13.27;;
31087;SDS011;17745;55.914;37.554;2023-02-22T10:31:00;28.23;;;13.73;;
31087;SDS011;17745;55.914;37.554;2023-02-22T10:33:32;25.85;;;13.90;;
31087;SDS011;17745;55.914;37.554;2023-02-22T10:36:04;14.87;;;10.32;;
31087;SDS011;17745;55.914;37.554;2023-02-22T10:38:42;30.62;;;16.45;;
31087;SDS011;17745;55.914;37.554;2023-02-22T10:41:21;22.77;;;13.70;;
31087;SDS011;17745;55.914;37.554;2023-02-22T10:43:54;24.35;;;13.48;;
31087;SDS011;17745;55.914;37.554;2023-02-22T10:46:26;25.30;;;14.00;;
31087;SDS011;17745;55.914;37.554;2023-02-22T10:49:01;18.15;;;11.70;;
31087;SDS011;17745;55.914;37.554;2023-02-22T10:51:33;26.25;;;13.80;;
31087;SDS011;17745;55.914;37.554;2023-02-22T10:54:13;21.75;;;13.82;;
31087;SDS011;17745;55.914;37.554;2023-02-22T10:56:51;23.30;;;11.12;;
31087;SDS011;17745;55.914;37.554;2023-02-22T10:59:25;21.05;;;10.15;;
31087;SDS011;17745;55.914;37.554;2023-02-22T11:01:57;22.02;;;13.07;;
31087;SDS011;17745;55.914;37.554;2023-02-22T11:04:26;28.20;;;15.15;;
31087;SDS011;17745;55.914;37.554;2023-02-22T11:07:08;22.23;;;12.73;;
31087;SDS011;17745;55.914;37.554;2023-02-22T11:09:49;19.23;;;12.23;;
31087;SDS011;17745;55.914;37.554;2023-02-22T11:12:19;24.42;;;13.65;;
31087;SDS011;17745;55.914;37.554;2023-02-22T11:14:54;22.15;;;12.98;;
31087;SDS011;17745;55.914;37.554;2023-02-22T11:17:27;20.33;;;11.68;;
31087;SDS011;17745;55.914;37.554;2023-02-22T11:19:58;18.23;;;11.05;;
31087;SDS011;17745;55.914;37.554;2023-02-22T11:22:29;26.40;;;13.77;;
31087;SDS011;17745;55.914;37.554;2023-02-22T11:25:05;24.27;;;14.32;;
31087;SDS011;17745;55.914;37.554;2023-02-22T11:27:35;30.42;;;13.00;;
31087;SDS011;17745;55.914;37.554;2023-02-22T11:32:54;22.27;;;13.07;;
31087;SDS011;17745;55.914;37.554;2023-02-22T11:35:33;26.20;;;14.85;;
31087;SDS011;17745;55.914;37.554;2023-02-22T11:38:16;27.25;;;13.45;;
31087;SDS011;17745;55.914;37.554;2023-02-22T11:41:03;24.43;;;13.90;;
31087;SDS011;17745;55.914;37.554;2023-02-22T11:43:33;18.98;;;12.25;;
31087;SDS011;17745;55.914;37.554;2023-02-22T11:46:10;23.12;;;15.10;;
31087;SDS011;17745;55.914;37.554;2023-02-22T11:48:41;21.85;;;13.25;;
31087;SDS011;17745;55.914;37.554;2023-02-22T11:51:25;21.95;;;13.45;;
31087;SDS011;17745;55.914;37.554;2023-02-22T11:54:08;16.80;;;11.32;;
31087;SDS011;17745;55.914;37.554;2023-02-22T11:57:04;21.73;;;12.63;;
31087;SDS011;17745;55.914;37.554;2023-02-22T12:00:11;23.87;;;14.07;;
31087;SDS011;17745;55.914;37.554;2023-02-22T12:03:22;26.33;;;13.52;;
31087;SDS011;17745;55.914;37.554;2023-02-22T12:06:04;18.98;;;9.45;;
31087;SDS011;17745;55.914;37.554;2023-02-22T12:08:57;23.15;;;11.45;;
31087;SDS011;17745;55.914;37.554;2023-02-22T12:11:36;20.27;;;12.68;;
31087;SDS011;17745;55.914;37.554;2023-02-22T12:14:15;16.23;;;10.50;;
31087;SDS011;17745;55.914;37.554;2023-02-22T12:16:56;31.65;;;16.00;;
31087;SDS011;17745;55.914;37.554;2023-02-22T12:19:36;20.58;;;9.75;;
31087;SDS011;17745;55.914;37.554;2023-02-22T12:22:08;22.55;;;11.68;;
31087;SDS011;17745;55.914;37.554;2023-02-22T12:24:44;19.87;;;13.60;;
31087;SDS011;17745;55.914;37.554;2023-02-22T12:27:17;14.80;;;9.80;;
31087;SDS011;17745;55.914;37.554;2023-02-22T12:29:55;17.98;;;11.35;;
31087;SDS011;17745;55.914;37.554;2023-02-22T12:32:31;27.25;;;13.70;;
31087;SDS011;17745;55.914;37.554;2023-02-22T12:35:09;25.17;;;11.57;;
31087;SDS011;17745;55.914;37.554;2023-02-22T12:37:51;24.30;;;11.25;;
31087;SDS011;17745;55.914;37.554;2023-02-22T12:40:28;24.27;;;13.88;;
31087;SDS011;17745;55.914;37.554;2023-02-22T12:45:35;20.80;;;11.63;;
31087;SDS011;17745;55.914;37.554;2023-02-22T12:48:19;24.08;;;13.38;;
31087;SDS011;17745;55.914;37.554;2023-02-22T12:50:57;24.40;;;11.75;;
31087;SDS011;17745;55.914;37.554;2023-02-22T12:53:31;18.95;;;9.55;;
31087;SDS011;17745;55.914;37.554;2023-02-22T12:56:11;18.42;;;12.05;;
31087;SDS011;17745;55.914;37.554;2023-02-22T12:58:50;17.83;;;10.25;;
31087;SDS011;17745;55.914;37.554;2023-02-22T13:01:33;19.90;;;11.60;;
31087;SDS011;17745;55.914;37.554;2023-02-22T13:04:06;14.23;;;8.98;;
31087;SDS011;17745;55.914;37.554;2023-02-22T13:06:53;13.73;;;8.52;;
31087;SDS011;17745;55.914;37.554;2023-02-22T13:09:47;17.60;;;10.57;;
31087;SDS011;17745;55.914;37.554;2023-02-22T13:12:37;29.15;;;10.43;;
31087;SDS011;17745;55.914;37.554;2023-02-22T13:15:17;11.93;;;8.25;;
31087;SDS011;17745;55.914;37.554;2023-02-22T13:17:58;15.35;;;8.98;;
31087;SDS011;17745;55.914;37.554;2023-02-22T13:20:33;19.73;;;9.60;;
31087;SDS011;17745;55.914;37.554;2023-02-22T13:23:07;23.52;;;11.10;;
31087;SDS011;17745;55.914;37.554;2023-02-22T13:25:46;17.67;;;9.82;;
31087;SDS011;17745;55.914;37.554;2023-02-22T13:28:23;19.62;;;10.45;;
31087;SDS011;17745;55.914;37.554;2023-02-22T13:31:05;17.67;;;12.05;;
31087;SDS011;17745;55.914;37.554;2023-02-22T13:33:59;27.70;;;11.23;;
31087;SDS011;17745;55.914;37.554;2023-02-22T13:36:47;18.35;;;10.73;;
31087;SDS011;17745;55.914;37.554;2023-02-22T13:39:35;17.83;;;10.38;;
31087;SDS011;17745;55.914;37.554;2023-02-22T13:42:23;15.52;;;9.90;;
31087;SDS011;17745;55.914;37.554;2023-02-22T13:48:29;15.60;;;9.35;;
31087;SDS011;17745;55.914;37.554;2023-02-22T13:51:34;15.73;;;8.70;;
31087;SDS011;17745;55.914;37.554;2023-02-22T13:54:13;14.15;;;9.02;;
31087;SDS011;17745;55.914;37.554;2023-02-22T13:56:50;16.42;;;8.88;;
31087;SDS011;17745;55.914;37.554;2023-02-22T13:59:29;21.17;;;11.40;;
31087;SDS011;17745;55.914;37.554;2023-02-22T14:02:14;19.70;;;10.00;;
31087;SDS011;17745;55.914;37.554;2023-02-22T14:05:36;18.55;;;10.77;;
31087;SDS011;17745;55.914;37.554;2023-02-22T14:14:22;13.40;;;8.23;;
31087;SDS011;17745;55.914;37.554;2023-02-22T14:20:14;11.68;;;8.35;;
31087;SDS011;17745;55.914;37.554;2023-02-22T14:22:52;21.45;;;13.77;;
31087;SDS011;17745;55.914;37.554;2023-02-22T14:25:42;21.12;;;8.07;;
31087;SDS011;17745;55.914;37.554;2023-02-22T14:28:33;17.85;;;9.88;;
31087;SDS011;17745;55.914;37.554;2023-02-22T14:31:05;15.63;;;9.55;;
31087;SDS011;17745;55.914;37.554;2023-02-22T14:33:51;15.52;;;9.25;;
31087;SDS011;17745;55.914;37.554;2023-02-22T14:36:39;14.27;;;10.20;;
31087;SDS011;17745;55.914;37.554;2023-02-22T14:39:21;17.62;;;9.50;;
31087;SDS011;17745;55.914;37.554;2023-02-22T14:41:58;11.27;;;8.55;;
31087;SDS011;17745;55.914;37.554;2023-02-22T14:44:37;13.52;;;9.80;;
31087;SDS011;17745;55.914;37.554;2023-02-22T14:47:15;16.52;;;10.05;;
31087;SDS011;17745;55.914;37.554;2023-02-22T14:49:57;24.10;;;10.27;;
31087;SDS011;17745;55.914;37.554;2023-02-22T14:52:36;18.15;;;9.85;;
31087;SDS011;17745;55.914;37.554;2023-02-22T14:55:29;21.77;;;11.73;;
31087;SDS011;17745;55.914;37.554;2023-02-22T14:58:17;19.15;;;11.12;;
31087;SDS011;17745;55.914;37.554;2023-02-22T15:00:52;18.67;;;9.27;;
31087;SDS011;17745;55.914;37.554;2023-02-22T15:03:39;19.35;;;11.00;;
31087;SDS011;17745;55.914;37.554;2023-02-22T15:08:46;20.70;;;12.07;;
31087;SDS011;17745;55.914;37.554;2023-02-22T15:11:20;21.20;;;11.50;;
31087;SDS011;17745;55.914;37.554;2023-02-22T15:14:13;20.50;;;11.43;;
31087;SDS011;17745;55.914;37.554;2023-02-22T15:16:47;20.00;;;10.70;;
31087;SDS011;17745;55.914;37.554;2023-02-22T15:19:24;23.23;;;13.73;;
31087;SDS011;17745;55.914;37.554;2023-02-22T15:21:58;15.50;;;9.75;;
31087;SDS011;17745;55.914;37.554;2023-02-22T15:24:40;17.45;;;10.80;;
31087;SDS011;17745;55.914;37.554;2023-02-22T15:27:36;12.73;;;9.25;;
31087;SDS011;17745;55.914;37.554;2023-02-22T15:30:33;28.38;;;12.20;;
31087;SDS011;17745;55.914;37.554;2023-02-22T15:33:13;17.92;;;10.68;;
31087;SDS011;17745;55.914;37.554;2023-02-22T15:36:11;16.23;;;10.35;;
31087;SDS011;17745;55.914;37.554;2023-02-22T15:38:59;15.70;;;9.30;;
31087;SDS011;17745;55.914;37.554;2023-02-22T15:44:56;22.80;;;11.98;;
31087;SDS011;17745;55.914;37.554;2023-02-22T19:27:05;16.33;;;9.35;;
31087;SDS011;17745;55.914;37.554;2023-02-22T19:30:41;18.70;;;10.10;;
31087;SDS011;17745;55.914;37.554;2023-02-22T19:36:10;14.52;;;8.93;;
31087;SDS011;17745;55.914;37.554;2023-02-22T19:42:54;19.85;;;10.25;;
31087;SDS011;17745;55.914;37.554;2023-02-22T19:45:47;15.25;;;9.05;;
31087;SDS011;17745;55.914;37.554;2023-02-22T19:51:31;14.10;;;8.95;;
31087;SDS011;17745;55.914;37.554;2023-02-22T20:01:25;14.63;;;9.43;;
31087;SDS011;17745;55.914;37.554;2023-02-22T20:04:12;11.85;;;8.52;;
31087;SDS011;17745;55.914;37.554;2023-02-22T20:06:58;19.92;;;11.75;;
31087;SDS011;17745;55.914;37.554;2023-02-22T20:09:32;14.85;;;9.25;;
31087;SDS011;17745;55.914;37.554;2023-02-22T20:12:19;16.12;;;10.88;;
31087;SDS011;17745;55.914;37.554;2023-02-22T20:14:49;9.80;;;6.93;;
31087;SDS011;17745;55.914;37.554;2023-02-22T20:17:25;17.05;;;9.05;;
31087;SDS011;17745;55.914;37.554;2023-02-22T20:20:14;16.70;;;8.77;;
31087;SDS011;17745;55.914;37.554;2023-02-22T20:24:10;12.50;;;8.82;;
31087;SDS011;17745;55.914;37.554;2023-02-22T20:29:55;17.30;;;9.68;;
31087;SDS011;17745;55.914;37.554;2023-02-22T20:44:29;20.27;;;10.27;;
31087;SDS011;17745;55.914;37.554;2023-02-22T20:47:00;12.15;;;8.70;;
31087;SDS011;17745;55.914;37.554;2023-02-22T20:49:36;14.23;;;8.55;;
31087;SDS011;17745;55.914;37.554;2023-02-22T21:48:07;6.90;;;6.22;;
31087;SDS011;17745;55.914;37.554;2023-02-22T21:50:51;14.87;;;9.00;;
31087;SDS011;17745;55.914;37.554;2023-02-22T21:53:27;13.93;;;8.80;;
31087;SDS011;17745;55.914;37.554;2023-02-22T21:56:34;15.43;;;8.05;;
31087;SDS011;17745;55.914;37.554;2023-02-22T21:59:48;13.93;;;7.82;;
31087;SDS011;17745;55.914;37.554;2023-02-22T22:06:10;12.25;;;9.65;;
31087;SDS011;17745;55.914;37.554;2023-02-22T22:08:44;15.52;;;9.40;;
31087;SDS011;17745;55.914;37.554;2023-02-22T22:11:39;17.30;;;8.95;;
31087;SDS011;17745;55.914;37.554;2023-02-22T22:14:12;17.75;;;9.38;;
31087;SDS011;17745;55.914;37.554;2023-02-22T22:16:47;9.77;;;8.43;;
31087;SDS011;17745;55.914;37.554;2023-02-22T22:22:25;10.65;;;7.90;;